ROYN/OGN METAR and TAF weather

Enter ICAO airport designator
Station Type Date Time Source
ROYN METAR 2019/04/25 11:00 UTC NOAA

ROYN 251100Z AUTO 05007KT 9999 FEW017 SCT021 BKN038 27/25 Q1008


Station Type Date Time Source
ROYN Decoded METAR 2019/04/25 11:00 UTC NOAA

Yonaguni Airport, Japan (ROYN) 24-28N 122-59E 19M
Apr 25, 2019 - 07:00 AM EDT / 2019.04.25 1100 UTC
Wind: from the NE (050 degrees) at 8 MPH (7 KT):0
Visibility: greater than 7 mile(s):0
Sky conditions: mostly cloudy
Temperature: 80 F (27 C)
Dew Point: 77 F (25 C)
Relative Humidity: 88%
Pressure (altimeter): 29.77 in. Hg (1008 hPa)
ob: ROYN 251100Z AUTO 05007KT 9999 FEW017 SCT021 BKN038 27/25 Q1008
cycle: 11

Station Type Date Time Source
ROYN TAF UTC NOAA

Error!

Example: see airport list